Terminal Aerodrome Forecast
Issued by NWS

Home | Current Version | Previous Version | Graphics & Text | Print | Product List | Glossary On
Versions: 1 2 3 4 5 6 7 8 9 10 11 12 13 14 15 16
000
FTUS42 KMHX 172300
TAFISO
TAF
KISO 172333Z 1800/1824 22011G18KT P6SM VCSH SCT025 BKN035
     FM180100 24010G15KT P6SM VCSH BKN040
     FM180500 30010KT P6SM BKN100
     FM181400 33012G20KT P6SM SKC
      AMD LTD TO CLD VIS AND WIND=

USA.gov is the U.S. government's official web portal to all federal, state and local government web resources and services.